createdAt,value
2022-11-29T00:01:23.429Z,112.25
2022-11-29T00:03:51.624Z,139.63
2022-11-29T00:06:24.430Z,103.30
2022-11-29T00:08:51.674Z,124.85
2022-11-29T00:11:39.494Z,105.05
2022-11-29T00:14:08.340Z,118.43
2022-11-29T00:16:36.515Z,106.93
2022-11-29T00:19:04.166Z,121.53
2022-11-29T00:21:31.192Z,125.20
2022-11-29T00:23:59.480Z,116.32
2022-11-29T00:26:26.502Z,152.27
2022-11-29T00:28:53.545Z,123.60
2022-11-29T00:31:26.431Z,147.30
2022-11-29T00:33:53.788Z,146.17
2022-11-29T00:36:20.859Z,145.68
2022-11-29T00:38:48.008Z,136.63
2022-11-29T00:41:15.147Z,119.28
2022-11-29T00:43:42.425Z,126.32
2022-11-29T00:46:09.771Z,118.68
2022-11-29T00:48:37.311Z,127.30
2022-11-29T00:51:05.960Z,153.80
2022-11-29T00:53:34.416Z,171.48
2022-11-29T00:56:01.996Z,167.52
2022-11-29T00:58:29.130Z,143.88
2022-11-29T01:00:56.597Z,209.95
2022-11-29T01:03:24.018Z,107.25
2022-11-29T01:05:51.998Z,146.77
2022-11-29T01:08:19.322Z,137.43
2022-11-29T01:10:46.381Z,133.77
2022-11-29T01:13:13.433Z,132.77
2022-11-29T01:15:41.476Z,141.48
2022-11-29T01:18:08.766Z,199.40
2022-11-29T01:20:35.819Z,140.70
2022-11-29T01:23:02.907Z,175.77
2022-11-29T01:25:32.042Z,115.30
2022-11-29T01:27:59.136Z,118.57
2022-11-29T01:30:26.324Z,118.10
2022-11-29T01:32:53.421Z,97.35
2022-11-29T01:35:20.412Z,120.07
2022-11-29T01:37:47.456Z,99.30
2022-11-29T01:40:14.852Z,123.57
2022-11-29T01:42:41.899Z,106.88
2022-11-29T01:45:24.333Z,101.70
2022-11-29T01:47:57.182Z,118.63
2022-11-29T01:50:24.491Z,107.80
2022-11-29T01:52:52.075Z,97.00
2022-11-29T01:55:19.315Z,144.18
2022-11-29T01:57:47.066Z,136.93
2022-11-29T02:00:17.604Z,120.53
2022-11-29T02:02:51.796Z,130.80
2022-11-29T02:05:20.220Z,149.13
2022-11-29T02:07:51.814Z,121.00
2022-11-29T02:10:20.089Z,138.93
2022-11-29T02:12:55.949Z,96.45
2022-11-29T02:15:33.416Z,89.25
2022-11-29T02:18:06.497Z,94.95
2022-11-29T02:21:09.327Z,94.20
2022-11-29T02:24:03.945Z,91.25
2022-11-29T02:27:02.818Z,92.07
2022-11-29T02:29:45.486Z,74.65
2022-11-29T02:32:49.965Z,103.28
2022-11-29T02:35:23.595Z,89.75
2022-11-29T02:38:15.267Z,79.03
2022-11-29T02:40:57.146Z,100.32
2022-11-29T02:43:36.579Z,87.75
2022-11-29T02:46:17.708Z,80.60
2022-11-29T02:48:53.498Z,76.03
2022-11-29T02:51:34.729Z,93.85
2022-11-29T02:54:16.816Z,73.32
2022-11-29T02:56:56.918Z,73.43
2022-11-29T02:59:33.177Z,131.13
2022-11-29T03:02:28.532Z,75.28
2022-11-29T03:05:09.773Z,109.28
2022-11-29T03:08:06.105Z,127.53
2022-11-29T03:10:42.837Z,101.40
2022-11-29T03:14:02.405Z,118.10
2022-11-29T03:16:42.826Z,98.40
2022-11-29T03:19:28.940Z,103.00
2022-11-29T03:22:07.750Z,96.78
2022-11-29T03:24:48.459Z,77.57
2022-11-29T03:27:45.557Z,145.18
2022-11-29T03:30:14.515Z,74.65
2022-11-29T03:33:10.155Z,76.95
2022-11-29T03:35:47.627Z,132.95
2022-11-29T03:38:33.136Z,163.75
2022-11-29T03:41:15.734Z,104.40
2022-11-29T03:43:49.190Z,111.82
2022-11-29T03:46:25.529Z,58.47
2022-11-29T03:48:59.405Z,60.35
2022-11-29T03:54:03.383Z,67.78
2022-11-29T03:56:37.263Z,68.40
2022-11-29T03:59:40.516Z,67.20
2022-11-29T04:05:06.294Z,89.25
2022-11-29T04:07:51.211Z,114.60
2022-11-29T04:10:39.784Z,87.85
2022-11-29T04:13:42.812Z,75.28
2022-11-29T04:16:18.871Z,70.18
2022-11-29T04:19:34.127Z,77.57
2022-11-29T04:22:25.585Z,73.38
2022-11-29T04:25:14.044Z,81.00
2022-11-29T04:28:04.868Z,82.28
2022-11-29T04:31:06.332Z,126.75
2022-11-29T04:34:10.231Z,86.32
2022-11-29T04:37:28.387Z,101.35
2022-11-29T04:40:22.043Z,122.90
2022-11-29T04:43:09.939Z,83.43
2022-11-29T04:46:01.925Z,69.07
2022-11-29T04:49:01.881Z,69.43
2022-11-29T04:52:17.050Z,55.75
2022-11-29T04:55:04.526Z,77.60
2022-11-29T04:57:44.838Z,118.97
2022-11-29T05:00:16.908Z,87.38
2022-11-29T05:03:11.290Z,82.50
2022-11-29T05:08:42.967Z,55.78
2022-11-29T05:11:26.278Z,99.20
2022-11-29T05:14:36.174Z,145.38
2022-11-29T05:17:24.591Z,115.25
2022-11-29T05:20:13.276Z,135.30
2022-11-29T05:22:52.097Z,150.73
2022-11-29T05:25:22.133Z,145.18
2022-11-29T05:28:12.925Z,133.73
2022-11-29T05:31:23.245Z,126.32
2022-11-29T05:34:21.374Z,140.02
2022-11-29T05:37:36.370Z,67.50
2022-11-29T05:42:51.684Z,74.93
2022-11-29T05:45:28.469Z,68.40
2022-11-29T05:48:05.685Z,97.32
2022-11-29T05:50:42.173Z,66.25
2022-11-29T05:53:21.196Z,148.48
2022-11-29T05:56:12.942Z,123.53
2022-11-29T05:59:09.314Z,125.97
2022-11-29T06:02:03.247Z,70.90
2022-11-29T06:05:08.296Z,196.05
2022-11-29T06:07:44.885Z,84.57
2022-11-29T06:10:18.271Z,61.15
2022-11-29T06:12:55.884Z,58.10
2022-11-29T06:16:02.257Z,47.85
2022-11-29T06:18:41.024Z,53.72
2022-11-29T06:21:17.935Z,68.85
2022-11-29T06:24:11.093Z,63.35
2022-11-29T06:26:40.804Z,77.82
2022-11-29T06:29:46.034Z,51.30
2022-11-29T06:32:40.840Z,85.07
2022-11-29T06:35:22.117Z,66.50
2022-11-29T06:37:51.905Z,48.60
2022-11-29T06:40:18.954Z,59.10
2022-11-29T06:42:46.031Z,80.00
2022-11-29T06:45:14.929Z,86.00
2022-11-29T06:48:06.794Z,111.93
2022-11-29T06:50:58.633Z,70.10
2022-11-29T06:53:39.140Z,58.80
2022-11-29T06:56:21.191Z,71.43
2022-11-29T06:59:08.558Z,41.97
2022-11-29T07:02:01.380Z,61.50
2022-11-29T07:04:45.743Z,54.83
2022-11-29T07:07:21.275Z,56.75
2022-11-29T07:09:50.870Z,42.70
2022-11-29T07:12:19.178Z,44.38
2022-11-29T07:14:47.189Z,56.47
2022-11-29T07:17:27.814Z,45.88
2022-11-29T07:20:18.209Z,61.20
2022-11-29T07:22:54.591Z,51.78
2022-11-29T07:25:26.839Z,48.45
2022-11-29T07:28:03.568Z,68.57
2022-11-29T07:31:07.131Z,47.92
2022-11-29T07:33:43.171Z,53.80
2022-11-29T07:36:29.139Z,57.17
2022-11-29T07:39:12.483Z,67.00
2022-11-29T07:41:46.423Z,55.15
2022-11-29T07:44:16.100Z,46.85
2022-11-29T07:46:43.300Z,39.10
2022-11-29T07:49:11.243Z,45.97
2022-11-29T07:51:38.392Z,53.28
2022-11-29T07:54:05.953Z,42.70
2022-11-29T07:56:33.296Z,48.17
2022-11-29T07:59:00.422Z,55.25
2022-11-29T08:01:28.088Z,48.13
2022-11-29T08:03:55.230Z,53.78
2022-11-29T08:06:26.195Z,68.18
2022-11-29T08:08:53.333Z,50.80
2022-11-29T08:11:20.406Z,56.25
2022-11-29T08:13:48.049Z,89.28
2022-11-29T08:16:19.376Z,58.65
2022-11-29T08:18:46.730Z,76.97
2022-11-29T08:21:18.170Z,55.35
2022-11-29T08:23:46.270Z,44.88
2022-11-29T08:26:13.864Z,80.95
2022-11-29T08:28:40.929Z,56.60
2022-11-29T08:31:11.016Z,57.53
2022-11-29T08:33:39.993Z,51.03
2022-11-29T08:36:09.803Z,50.45
2022-11-29T08:38:36.795Z,76.50
2022-11-29T08:41:10.060Z,49.42
2022-11-29T08:43:37.155Z,54.83
2022-11-29T08:46:04.773Z,38.50
2022-11-29T08:48:31.989Z,40.72
2022-11-29T08:50:58.982Z,42.83
2022-11-29T08:53:41.492Z,39.53
2022-11-29T08:57:04.249Z,43.33
2022-11-29T08:59:06.039Z,49.47
2022-11-29T09:01:33.145Z,51.88
2022-11-29T09:04:00.359Z,39.45
2022-11-29T09:06:32.699Z,58.67
2022-11-29T09:09:00.978Z,38.88
2022-11-29T09:11:30.571Z,51.67
2022-11-29T09:14:00.200Z,42.60
2022-11-29T09:16:29.945Z,47.50
2022-11-29T09:18:57.334Z,38.47
2022-11-29T09:21:29.333Z,35.55
2022-11-29T09:24:02.893Z,41.50
2022-11-29T09:29:01.154Z,40.35
2022-11-29T09:31:29.881Z,46.50
2022-11-29T09:33:57.245Z,43.95
2022-11-29T09:36:28.524Z,40.33
2022-11-29T09:38:57.697Z,51.42
2022-11-29T09:41:54.229Z,50.67
2022-11-29T09:44:53.874Z,51.05
2022-11-29T09:47:49.865Z,45.05
2022-11-29T09:50:26.685Z,42.72
2022-11-29T09:53:26.580Z,47.08
2022-11-29T09:56:18.224Z,47.03
2022-11-29T09:58:51.393Z,50.20
2022-11-29T10:01:27.131Z,46.47
2022-11-29T10:04:00.763Z,50.42
2022-11-29T10:06:36.650Z,40.42
2022-11-29T10:09:33.705Z,45.92
2022-11-29T10:12:25.156Z,40.00
2022-11-29T10:14:58.048Z,43.20
2022-11-29T10:17:33.803Z,36.90
2022-11-29T10:20:12.775Z,43.90
2022-11-29T10:22:45.595Z,37.92
2022-11-29T10:25:22.889Z,30.97
2022-11-29T10:27:50.142Z,35.75
2022-11-29T10:30:18.168Z,37.25
2022-11-29T10:32:48.440Z,33.90
2022-11-29T10:35:18.812Z,35.85
2022-11-29T10:38:07.828Z,38.13
2022-11-29T10:40:36.236Z,26.02
2022-11-29T10:43:04.335Z,33.83
2022-11-29T10:45:50.688Z,34.95
2022-11-29T10:48:21.237Z,29.95
2022-11-29T10:50:50.365Z,31.88
2022-11-29T10:53:27.321Z,31.67
2022-11-29T10:56:05.811Z,33.95
2022-11-29T10:58:33.027Z,31.58
2022-11-29T11:01:02.327Z,34.47
2022-11-29T11:03:37.504Z,44.53
2022-11-29T11:06:20.838Z,38.53
2022-11-29T11:08:52.689Z,35.55
2022-11-29T11:11:31.896Z,31.63
2022-11-29T11:14:05.582Z,29.60
2022-11-29T11:16:37.454Z,32.85
2022-11-29T11:19:28.483Z,35.78
2022-11-29T11:22:05.535Z,36.47
2022-11-29T11:24:41.942Z,34.97
2022-11-29T11:27:09.073Z,37.63
2022-11-29T11:29:39.672Z,32.22
2022-11-29T11:32:18.595Z,30.23
2022-11-29T11:34:59.824Z,28.15
2022-11-29T11:37:32.712Z,31.77
2022-11-29T11:40:19.106Z,37.70
2022-11-29T11:42:46.690Z,44.13
2022-11-29T11:45:13.677Z,33.17
2022-11-29T11:47:46.644Z,35.92
2022-11-29T11:50:43.559Z,39.20
2022-11-29T11:53:36.498Z,26.17
2022-11-29T11:56:09.822Z,32.05
2022-11-29T11:58:58.320Z,40.13
2022-11-29T12:01:28.577Z,34.03
2022-11-29T12:04:20.533Z,36.55
2022-11-29T12:06:58.540Z,26.98
2022-11-29T12:09:44.567Z,25.42
2022-11-29T12:12:20.651Z,33.47
2022-11-29T12:14:58.467Z,26.33
2022-11-29T12:17:46.675Z,29.25
2022-11-29T12:20:25.420Z,28.95
2022-11-29T12:23:18.272Z,29.27
2022-11-29T12:26:05.694Z,29.63
2022-11-29T12:28:38.302Z,34.47
2022-11-29T12:31:34.018Z,30.05
2022-11-29T12:34:27.227Z,29.42
2022-11-29T12:37:04.485Z,33.95
2022-11-29T12:39:53.536Z,27.95
2022-11-29T12:42:48.174Z,30.20
2022-11-29T12:45:27.129Z,40.65
2022-11-29T12:48:08.915Z,33.67
2022-11-29T12:50:54.528Z,23.80
2022-11-29T12:53:32.945Z,26.65
2022-11-29T12:56:25.158Z,28.55
2022-11-29T12:59:21.526Z,25.90
2022-11-29T13:02:20.817Z,32.72
2022-11-29T13:05:17.161Z,21.88
2022-11-29T13:07:53.127Z,34.95
2022-11-29T13:10:54.027Z,32.33
2022-11-29T13:13:41.448Z,24.13
2022-11-29T13:16:31.045Z,26.25
2022-11-29T13:19:35.754Z,24.40
2022-11-29T13:22:10.061Z,28.67
2022-11-29T13:24:46.271Z,25.58
2022-11-29T13:27:25.566Z,22.73
2022-11-29T13:29:53.585Z,21.27
2022-11-29T13:32:28.330Z,23.88
2022-11-29T13:35:01.364Z,27.88
2022-11-29T13:37:44.952Z,22.52
2022-11-29T13:40:49.106Z,22.75
2022-11-29T13:43:30.427Z,18.58
2022-11-29T13:46:28.191Z,28.00
2022-11-29T13:48:55.612Z,26.67
2022-11-29T13:51:27.062Z,27.20
2022-11-29T13:54:01.138Z,22.45
2022-11-29T13:56:46.200Z,27.02
2022-11-29T13:59:22.517Z,27.05
2022-11-29T14:01:52.696Z,26.85
2022-11-29T14:04:37.900Z,27.27
2022-11-29T14:07:10.003Z,28.60
2022-11-29T14:10:02.191Z,23.90
2022-11-29T14:12:54.336Z,21.10
2022-11-29T14:15:28.237Z,29.90
2022-11-29T14:17:58.777Z,21.45
2022-11-29T14:20:28.088Z,22.83
2022-11-29T14:23:04.588Z,21.55
2022-11-29T14:25:51.749Z,21.38
2022-11-29T14:28:22.075Z,26.70
2022-11-29T14:31:02.745Z,19.13
2022-11-29T14:34:24.149Z,21.15
2022-11-29T14:37:04.436Z,25.40
2022-11-29T14:39:43.326Z,26.65
2022-11-29T14:42:17.041Z,21.63
2022-11-29T14:47:26.364Z,18.15
2022-11-29T14:49:55.672Z,21.50
2022-11-29T14:52:37.068Z,22.05
2022-11-29T14:55:29.061Z,32.08
2022-11-29T14:58:05.850Z,26.02
2022-11-29T15:00:32.878Z,25.42
2022-11-29T15:03:08.740Z,30.10
2022-11-29T15:05:39.796Z,30.60
2022-11-29T15:08:16.945Z,24.98
2022-11-29T15:10:50.200Z,25.25
2022-11-29T15:13:28.002Z,35.17
2022-11-29T15:16:09.416Z,33.78
2022-11-29T15:19:13.104Z,26.58
2022-11-29T15:22:03.736Z,33.70
2022-11-29T15:24:30.752Z,23.85
2022-11-29T15:26:59.886Z,30.20
2022-11-29T15:29:28.357Z,32.72
2022-11-29T15:32:01.370Z,31.00
2022-11-29T15:34:34.949Z,26.80
2022-11-29T15:37:02.157Z,26.13
2022-11-29T15:39:33.900Z,30.55
2022-11-29T15:42:10.146Z,30.23
2022-11-29T15:44:37.244Z,27.65
2022-11-29T15:47:16.292Z,32.50
2022-11-29T15:49:43.413Z,29.75
2022-11-29T15:52:20.699Z,32.35
2022-11-29T15:54:55.425Z,33.97
2022-11-29T15:57:30.876Z,29.90
2022-11-29T16:00:04.461Z,29.92
2022-11-29T16:02:39.198Z,25.33
2022-11-29T16:05:42.031Z,26.23
2022-11-29T16:08:18.190Z,24.48
2022-11-29T16:10:52.865Z,25.98
2022-11-29T16:13:25.715Z,34.92
2022-11-29T16:16:16.247Z,26.10
2022-11-29T16:18:45.323Z,31.88
2022-11-29T16:21:30.527Z,28.75
2022-11-29T16:23:58.839Z,31.63
2022-11-29T16:26:34.366Z,31.70
2022-11-29T16:29:01.716Z,25.10
2022-11-29T16:31:37.226Z,28.80
2022-11-29T16:34:26.161Z,26.65
2022-11-29T16:37:07.987Z,30.17
2022-11-29T16:39:38.341Z,34.58
2022-11-29T16:42:18.282Z,31.48
2022-11-29T16:44:49.917Z,27.08
2022-11-29T16:47:22.202Z,32.55
2022-11-29T16:50:14.499Z,31.27
2022-11-29T16:52:41.900Z,31.63
2022-11-29T16:55:09.060Z,33.53
2022-11-29T16:57:37.061Z,28.02
2022-11-29T17:00:37.264Z,27.90
2022-11-29T17:03:04.779Z,27.48
2022-11-29T17:05:32.135Z,32.85
2022-11-29T17:08:00.180Z,30.77
2022-11-29T17:10:28.793Z,29.23
2022-11-29T17:12:55.944Z,28.65
2022-11-29T17:15:23.302Z,27.23
2022-11-29T17:17:50.822Z,28.00
2022-11-29T17:20:18.489Z,31.70
2022-11-29T17:22:45.606Z,31.58
2022-11-29T17:25:12.855Z,35.38
2022-11-29T17:27:39.897Z,32.13
2022-11-29T17:30:08.133Z,32.00
2022-11-29T17:32:35.882Z,32.75
2022-11-29T17:35:03.327Z,28.42
2022-11-29T17:37:31.148Z,27.25
2022-11-29T17:39:58.339Z,25.60
2022-11-29T17:42:25.542Z,29.25
2022-11-29T17:44:52.684Z,24.73
2022-11-29T17:47:19.787Z,25.27
2022-11-29T17:49:47.189Z,33.47
2022-11-29T17:52:14.523Z,30.25
2022-11-29T17:54:41.987Z,32.45
2022-11-29T17:57:09.174Z,27.17
2022-11-29T17:59:36.223Z,26.95
2022-11-29T18:02:04.689Z,25.00
2022-11-29T18:04:31.746Z,29.75
2022-11-29T18:06:59.073Z,27.48
2022-11-29T18:09:26.066Z,23.95
2022-11-29T18:11:53.168Z,28.35
2022-11-29T18:14:23.721Z,28.48
2022-11-29T18:16:52.044Z,31.42
2022-11-29T18:19:21.953Z,24.42
2022-11-29T18:21:50.706Z,24.10
2022-11-29T18:24:19.100Z,28.17
2022-11-29T18:26:47.946Z,25.80
2022-11-29T18:29:15.615Z,27.77
2022-11-29T18:31:44.952Z,31.42
2022-11-29T18:34:14.100Z,25.77
2022-11-29T18:36:44.434Z,26.02
2022-11-29T18:39:14.476Z,22.13
2022-11-29T18:41:48.835Z,26.92
2022-11-29T18:44:18.320Z,23.48
2022-11-29T18:46:46.133Z,29.20
2022-11-29T18:49:18.313Z,19.67
2022-11-29T18:51:47.104Z,18.02
2022-11-29T18:54:18.812Z,26.08
2022-11-29T18:56:46.492Z,23.08
2022-11-29T18:59:19.142Z,24.73
2022-11-29T19:01:48.667Z,23.98
2022-11-29T19:04:18.399Z,18.85
2022-11-29T19:06:45.735Z,21.20
2022-11-29T19:09:18.407Z,19.10
2022-11-29T19:11:45.561Z,17.98
2022-11-29T19:14:13.108Z,28.83
2022-11-29T19:16:43.409Z,18.83
2022-11-29T19:19:10.772Z,20.80
2022-11-29T19:21:39.865Z,24.17
2022-11-29T19:24:15.676Z,18.65
2022-11-29T19:26:44.927Z,17.52
2022-11-29T19:29:13.833Z,16.20
2022-11-29T19:31:42.699Z,20.15
2022-11-29T19:34:10.560Z,17.13
2022-11-29T19:36:43.053Z,24.95
2022-11-29T19:39:12.943Z,18.23
2022-11-29T19:41:42.981Z,19.70
2022-11-29T19:44:10.389Z,18.95
2022-11-29T19:46:40.969Z,18.45
2022-11-29T19:49:08.901Z,18.08
2022-11-29T19:51:37.097Z,18.00
2022-11-29T19:54:07.162Z,23.10
2022-11-29T19:56:34.645Z,17.42
2022-11-29T19:59:01.842Z,21.88
2022-11-29T20:01:37.875Z,15.77
2022-11-29T20:04:08.695Z,17.27
2022-11-29T20:06:36.149Z,17.55
2022-11-29T20:09:03.475Z,13.50
2022-11-29T20:11:30.819Z,19.15
2022-11-29T20:14:00.241Z,19.25
2022-11-29T20:16:28.768Z,15.73
2022-11-29T20:18:56.616Z,17.33
2022-11-29T20:21:26.241Z,13.63
2022-11-29T20:23:58.735Z,17.08
2022-11-29T20:26:27.583Z,19.98
2022-11-29T20:28:55.320Z,22.75
2022-11-29T20:31:23.425Z,12.52
2022-11-29T20:33:52.816Z,17.83
2022-11-29T20:37:07.333Z,14.70
2022-11-29T20:39:34.392Z,18.15
2022-11-29T20:42:29.428Z,14.90
2022-11-29T20:44:59.114Z,14.02
2022-11-29T20:47:32.505Z,13.38
2022-11-29T20:49:59.766Z,13.50
2022-11-29T20:52:29.480Z,13.95
2022-11-29T20:54:56.472Z,14.63
2022-11-29T20:57:24.028Z,14.38
2022-11-29T20:59:51.093Z,18.67
2022-11-29T21:02:22.556Z,17.33
2022-11-29T21:04:49.587Z,16.00
2022-11-29T21:07:17.163Z,16.23
2022-11-29T21:09:44.284Z,14.02
2022-11-29T21:12:11.876Z,20.35
2022-11-29T21:14:39.177Z,14.20
2022-11-29T21:17:07.785Z,14.85
2022-11-29T21:19:35.089Z,15.55
2022-11-29T21:22:10.726Z,14.25
2022-11-29T21:24:56.367Z,17.83
2022-11-29T21:27:34.329Z,16.00
2022-11-29T21:30:05.634Z,12.40
2022-11-29T21:32:33.173Z,16.60
2022-11-29T21:35:00.201Z,15.50
2022-11-29T21:37:30.790Z,18.73
2022-11-29T21:39:58.577Z,16.70
2022-11-29T21:42:25.651Z,16.38
2022-11-29T21:44:52.766Z,13.15
2022-11-29T21:47:19.798Z,16.30
2022-11-29T21:49:47.393Z,14.65
2022-11-29T21:52:19.197Z,11.52
2022-11-29T21:54:49.696Z,13.23
2022-11-29T21:57:17.018Z,16.80
2022-11-29T21:59:44.160Z,14.52
2022-11-29T22:02:11.350Z,18.75
2022-11-29T22:04:38.616Z,15.70
2022-11-29T22:07:05.897Z,15.00
2022-11-29T22:09:33.025Z,13.13
2022-11-29T22:12:00.180Z,17.40
2022-11-29T22:14:27.315Z,15.70
2022-11-29T22:16:59.706Z,13.50
2022-11-29T22:19:32.095Z,20.13
2022-11-29T22:22:03.403Z,14.45
2022-11-29T22:24:36.170Z,17.52
2022-11-29T22:27:03.772Z,22.73
2022-11-29T22:29:31.009Z,17.33
2022-11-29T22:31:59.422Z,17.05
2022-11-29T22:34:27.416Z,20.13
2022-11-29T22:36:55.398Z,17.90
2022-11-29T22:39:23.096Z,20.15
2022-11-29T22:41:54.315Z,23.27
2022-11-29T22:44:23.790Z,22.45
2022-11-29T22:46:51.218Z,24.55
2022-11-29T22:49:18.573Z,22.83
2022-11-29T22:51:45.627Z,23.20
2022-11-29T22:54:15.455Z,20.15
2022-11-29T22:56:43.845Z,23.20
2022-11-29T22:59:10.859Z,26.85
2022-11-29T23:01:40.636Z,25.25
2022-11-29T23:04:09.162Z,24.73
2022-11-29T23:06:41.729Z,23.55
2022-11-29T23:09:15.131Z,23.42
2022-11-29T23:11:44.237Z,23.08
2022-11-29T23:14:12.190Z,23.17
2022-11-29T23:16:40.696Z,23.17
2022-11-29T23:19:07.855Z,24.58
2022-11-29T23:21:37.661Z,25.40
2022-11-29T23:24:06.069Z,28.92
2022-11-29T23:26:39.701Z,19.77
2022-11-29T23:29:09.967Z,22.67
2022-11-29T23:31:37.197Z,23.75
2022-11-29T23:34:04.573Z,28.50
2022-11-29T23:36:32.132Z,24.33
2022-11-29T23:38:59.229Z,26.15
2022-11-29T23:41:26.298Z,22.08
2022-11-29T23:43:53.352Z,22.60
2022-11-29T23:46:23.501Z,24.10
2022-11-29T23:48:51.870Z,23.55
2022-11-29T23:51:19.964Z,28.08
2022-11-29T23:53:52.053Z,23.98
2022-11-29T23:56:19.951Z,27.98
2022-11-29T23:58:47.444Z,25.77
